createdAt,value
2023-06-07T00:00:12.689Z,3.78
2023-06-07T00:05:17.050Z,4.35
2023-06-07T00:10:20.072Z,4.33
2023-06-07T00:15:23.061Z,4.30
2023-06-07T00:20:27.612Z,4.07
2023-06-07T00:25:31.365Z,3.75
2023-06-07T00:30:34.401Z,4.40
2023-06-07T00:35:38.658Z,5.00
2023-06-07T00:40:44.697Z,4.55
2023-06-07T00:45:47.633Z,5.07
2023-06-07T00:50:52.897Z,4.57
2023-06-07T00:55:55.951Z,4.30
2023-06-07T01:01:00.461Z,4.07
2023-06-07T01:06:04.848Z,4.73
2023-06-07T01:11:08.914Z,5.55
2023-06-07T01:16:12.660Z,4.80
2023-06-07T01:21:20.268Z,4.65
2023-06-07T01:26:27.956Z,5.18
2023-06-07T01:31:31.021Z,4.70
2023-06-07T01:36:34.040Z,4.95
2023-06-07T01:41:38.570Z,5.15
2023-06-07T01:46:42.499Z,4.18
2023-06-07T01:51:45.638Z,4.70
2023-06-07T01:56:59.040Z,4.27
2023-06-07T02:02:06.430Z,4.72
2023-06-07T02:07:10.874Z,4.65
2023-06-07T02:12:15.671Z,3.97
2023-06-07T02:17:18.700Z,4.13
2023-06-07T02:22:21.860Z,4.68
2023-06-07T02:27:26.306Z,4.25
2023-06-07T02:32:30.465Z,4.83
2023-06-07T02:37:33.624Z,3.85
2023-06-07T02:42:38.143Z,3.63
2023-06-07T02:47:41.441Z,4.05
2023-06-07T02:52:47.095Z,4.07
2023-06-07T02:57:51.919Z,4.40
2023-06-07T03:02:57.723Z,4.60
2023-06-07T03:08:01.358Z,3.90
2023-06-07T03:13:07.986Z,4.13
2023-06-07T03:18:16.615Z,3.63
2023-06-07T03:23:25.095Z,3.90
2023-06-07T03:28:32.204Z,3.97
2023-06-07T03:33:35.801Z,4.38
2023-06-07T03:38:38.916Z,3.67
2023-06-07T03:43:43.602Z,3.85
2023-06-07T03:48:49.139Z,3.80
2023-06-07T03:53:54.138Z,4.28
2023-06-07T03:59:02.865Z,3.80
2023-06-07T04:04:08.141Z,3.90
2023-06-07T04:09:11.155Z,3.72
2023-06-07T04:14:15.527Z,3.67
2023-06-07T04:19:18.951Z,3.80
2023-06-07T04:24:23.062Z,4.32
2023-06-07T04:29:27.991Z,3.88
2023-06-07T04:34:33.128Z,3.75
2023-06-07T04:39:37.595Z,4.15
2023-06-07T04:44:43.698Z,4.07
2023-06-07T04:49:53.310Z,3.23
2023-06-07T04:54:59.393Z,3.72
2023-06-07T05:00:13.161Z,3.60
2023-06-07T05:05:20.505Z,3.75
2023-06-07T05:10:25.026Z,3.03
2023-06-07T05:15:29.839Z,3.70
2023-06-07T05:20:34.014Z,4.15
2023-06-07T05:25:40.073Z,3.60
2023-06-07T05:30:45.064Z,3.10
2023-06-07T05:35:48.608Z,3.83
2023-06-07T05:40:55.116Z,3.27
2023-06-07T05:45:59.577Z,2.58
2023-06-07T05:51:04.055Z,3.10
2023-06-07T05:56:11.315Z,3.60
2023-06-07T06:01:15.946Z,3.30
2023-06-07T06:06:20.212Z,3.53
2023-06-07T06:11:23.530Z,3.33
2023-06-07T06:16:28.330Z,3.70
2023-06-07T06:21:32.477Z,2.75
2023-06-07T06:26:36.635Z,3.42
2023-06-07T06:31:42.238Z,2.43
2023-06-07T06:36:45.205Z,3.10
2023-06-07T06:41:48.171Z,3.70
2023-06-07T06:46:59.141Z,4.05
2023-06-07T06:52:02.185Z,3.58
2023-06-07T06:57:07.025Z,3.07
2023-06-07T07:02:12.271Z,2.93
2023-06-07T07:07:15.608Z,3.50
2023-06-07T07:12:18.884Z,2.70
2023-06-07T07:17:23.319Z,3.50
2023-06-07T07:22:28.863Z,2.80
2023-06-07T07:27:33.088Z,3.25
2023-06-07T07:32:37.432Z,3.17
2023-06-07T07:37:40.847Z,2.97
2023-06-07T07:42:43.968Z,3.00
2023-06-07T07:47:48.288Z,2.70
2023-06-07T07:52:51.423Z,2.95
2023-06-07T07:57:54.354Z,2.63
2023-06-07T08:02:58.895Z,2.97
2023-06-07T08:08:03.835Z,2.88
2023-06-07T08:13:06.813Z,2.80
2023-06-07T08:18:11.287Z,3.10
2023-06-07T08:23:14.565Z,3.07
2023-06-07T08:28:18.011Z,2.67
2023-06-07T08:33:22.348Z,3.20
2023-06-07T08:38:25.209Z,3.03
2023-06-07T08:43:28.292Z,2.43
2023-06-07T08:48:35.450Z,2.77
2023-06-07T08:53:43.888Z,3.00
2023-06-07T08:58:46.973Z,3.15
2023-06-07T09:03:53.825Z,2.72
2023-06-07T09:08:59.424Z,2.53
2023-06-07T09:14:02.733Z,2.90
2023-06-07T09:19:07.395Z,2.58
2023-06-07T09:24:10.415Z,2.42
2023-06-07T09:29:13.430Z,2.58
2023-06-07T09:34:22.987Z,2.53
2023-06-07T09:39:27.584Z,3.40
2023-06-07T09:44:32.426Z,3.30
2023-06-07T09:49:38.682Z,2.83
2023-06-07T09:54:42.881Z,2.80
2023-06-07T09:59:59.465Z,3.10
2023-06-07T10:05:04.134Z,3.20
2023-06-07T10:10:11.158Z,2.75
2023-06-07T10:15:16.712Z,3.97
2023-06-07T10:20:26.869Z,3.33
2023-06-07T10:25:32.484Z,3.50
2023-06-07T10:30:37.267Z,3.05
2023-06-07T10:35:41.833Z,3.05
2023-06-07T10:40:45.315Z,4.00
2023-06-07T10:45:48.326Z,2.80
2023-06-07T10:50:52.934Z,3.33
2023-06-07T10:55:56.472Z,3.60
2023-06-07T11:01:03.751Z,3.72
2023-06-07T11:06:10.149Z,3.15
2023-06-07T11:11:52.694Z,3.53
2023-06-07T11:16:55.804Z,3.23
2023-06-07T11:22:09.377Z,2.80
2023-06-07T11:27:16.055Z,3.20
2023-06-07T11:32:19.260Z,3.28
2023-06-07T11:37:24.001Z,3.80
2023-06-07T11:42:27.290Z,4.00
2023-06-07T11:47:30.364Z,3.40
2023-06-07T11:52:34.848Z,3.30
2023-06-07T11:57:39.423Z,3.83
2023-06-07T12:02:42.870Z,4.28
2023-06-07T12:07:58.506Z,4.50
2023-06-07T12:13:10.633Z,4.30
2023-06-07T12:18:14.763Z,3.72
2023-06-07T12:23:22.892Z,4.43
2023-06-07T12:28:26.905Z,4.07
2023-06-07T12:33:30.317Z,4.53
2023-06-07T12:38:34.779Z,5.82
2023-06-07T12:43:37.846Z,4.25
2023-06-07T12:48:40.943Z,5.10
2023-06-07T12:53:45.763Z,5.33
2023-06-07T12:58:48.846Z,4.95
2023-06-07T13:03:51.948Z,5.88
2023-06-07T13:09:08.432Z,5.10
2023-06-07T13:14:11.681Z,5.82
2023-06-07T13:19:14.633Z,4.43
2023-06-07T13:24:19.629Z,5.22
2023-06-07T13:29:22.677Z,5.23
2023-06-07T13:34:25.701Z,5.53
2023-06-07T13:39:30.150Z,4.93
2023-06-07T13:44:33.394Z,4.75
2023-06-07T13:49:38.909Z,4.65
2023-06-07T13:54:44.179Z,4.95
2023-06-07T13:59:47.561Z,4.60
2023-06-07T14:04:50.940Z,4.78
2023-06-07T14:09:55.363Z,4.53
2023-06-07T14:14:58.460Z,4.30
2023-06-07T14:20:01.559Z,4.60
2023-06-07T14:25:07.614Z,4.90
2023-06-07T14:30:11.528Z,4.65
2023-06-07T14:35:14.744Z,4.72
2023-06-07T14:40:19.991Z,4.78
2023-06-07T14:45:25.814Z,5.10
2023-06-07T14:50:29.063Z,4.93
2023-06-07T14:55:33.567Z,4.93
2023-06-07T15:00:36.998Z,4.10
2023-06-07T15:05:40.104Z,4.50
2023-06-07T15:10:44.389Z,4.53
2023-06-07T15:15:47.536Z,4.95
2023-06-07T15:20:50.711Z,4.30
2023-06-07T15:25:55.055Z,4.47
2023-06-07T15:30:58.140Z,5.13
2023-06-07T15:36:01.094Z,4.80
2023-06-07T15:41:08.125Z,4.40
2023-06-07T15:46:12.242Z,3.97
2023-06-07T15:51:15.384Z,4.25
2023-06-07T15:56:19.781Z,4.07
2023-06-07T16:01:22.980Z,4.85
2023-06-07T16:06:26.014Z,5.20
2023-06-07T16:11:30.523Z,4.77
2023-06-07T16:16:33.573Z,4.60
2023-06-07T16:21:37.450Z,4.73
2023-06-07T16:26:41.703Z,5.18
2023-06-07T16:31:44.578Z,4.47
2023-06-07T16:36:47.638Z,5.13
2023-06-07T16:41:52.163Z,4.32
2023-06-07T16:46:56.667Z,4.23
2023-06-07T16:52:00.144Z,4.35
2023-06-07T16:57:06.264Z,4.23
2023-06-07T17:02:09.341Z,4.90
2023-06-07T17:07:12.461Z,4.18
2023-06-07T17:12:16.744Z,4.35
2023-06-07T17:17:19.773Z,3.92
2023-06-07T17:22:22.908Z,4.60
2023-06-07T17:27:27.307Z,4.75
2023-06-07T17:32:30.334Z,4.00
2023-06-07T17:37:33.245Z,4.55
2023-06-07T17:42:37.562Z,4.70
2023-06-07T17:47:47.701Z,4.70
2023-06-07T17:52:50.910Z,4.37
2023-06-07T17:57:55.356Z,4.80
2023-06-07T18:02:58.507Z,3.83
2023-06-07T18:08:01.668Z,4.32
2023-06-07T18:13:06.321Z,4.82
2023-06-07T18:18:09.397Z,4.45
2023-06-07T18:23:13.460Z,3.90
2023-06-07T18:28:17.883Z,4.07
2023-06-07T18:33:28.679Z,4.22
2023-06-07T18:38:31.761Z,4.05
2023-06-07T18:43:36.112Z,4.00
2023-06-07T18:48:39.043Z,4.15
2023-06-07T18:53:42.160Z,4.90
2023-06-07T18:58:47.025Z,4.47
2023-06-07T19:03:50.313Z,4.60
2023-06-07T19:08:53.410Z,4.63
2023-06-07T19:13:57.834Z,4.55
2023-06-07T19:19:00.870Z,4.78
2023-06-07T19:24:04.565Z,4.30
2023-06-07T19:29:09.085Z,4.68
2023-06-07T19:34:12.075Z,4.50
2023-06-07T19:39:15.109Z,4.57
2023-06-07T19:44:19.460Z,5.65
2023-06-07T19:49:22.637Z,4.03
2023-06-07T19:54:25.756Z,4.25
2023-06-07T19:59:30.052Z,4.47
2023-06-07T20:04:34.169Z,5.15
2023-06-07T20:09:39.816Z,4.75
2023-06-07T20:14:44.210Z,4.22
2023-06-07T20:19:47.335Z,4.38
2023-06-07T20:24:50.592Z,4.90
2023-06-07T20:29:54.907Z,4.33
2023-06-07T20:34:58.902Z,4.30
2023-06-07T20:40:02.401Z,4.57
2023-06-07T20:45:08.377Z,5.28
2023-06-07T20:50:11.651Z,5.28
2023-06-07T20:55:14.627Z,5.50
2023-06-07T21:00:19.997Z,4.60
2023-06-07T21:05:22.980Z,4.70
2023-06-07T21:10:26.137Z,5.30
2023-06-07T21:15:30.502Z,4.60
2023-06-07T21:20:33.508Z,5.25
2023-06-07T21:25:36.420Z,4.95
2023-06-07T21:30:40.715Z,5.53
2023-06-07T21:35:43.591Z,5.10
2023-06-07T21:40:46.517Z,6.55
2023-06-07T21:45:50.937Z,5.82
2023-06-07T21:50:53.803Z,6.37
2023-06-07T21:55:56.720Z,5.53
2023-06-07T22:01:00.992Z,4.73
2023-06-07T22:06:03.976Z,5.82
2023-06-07T22:11:06.850Z,5.72
2023-06-07T22:16:11.208Z,6.15
2023-06-07T22:21:14.717Z,6.83
2023-06-07T22:26:17.516Z,6.85
2023-06-07T22:31:21.717Z,6.78
2023-06-07T22:36:32.680Z,6.25
2023-06-07T22:41:35.846Z,7.20
2023-06-07T22:46:40.158Z,6.40
2023-06-07T22:51:43.568Z,6.50
2023-06-07T22:56:46.467Z,6.77
2023-06-07T23:01:51.063Z,6.90
2023-06-07T23:06:54.134Z,6.13
2023-06-07T23:12:00.241Z,6.57
2023-06-07T23:17:06.211Z,6.07
2023-06-07T23:22:11.420Z,6.17
2023-06-07T23:27:14.279Z,6.28
2023-06-07T23:32:18.602Z,5.63
2023-06-07T23:37:21.470Z,5.75
2023-06-07T23:42:24.358Z,5.22
2023-06-07T23:47:28.806Z,5.18
2023-06-07T23:52:31.802Z,6.53
2023-06-07T23:57:34.701Z,6.28
